createdAt,value
2019-03-09T00:02:13.865Z,37.63
2019-03-09T00:04:47.111Z,37.68
2019-03-09T00:07:20.580Z,37.71
2019-03-09T00:09:54.801Z,37.79
2019-03-09T00:12:28.030Z,37.79
2019-03-09T00:15:01.280Z,37.82
2019-03-09T00:17:35.774Z,37.89
2019-03-09T00:20:09.015Z,37.87
2019-03-09T00:22:42.244Z,37.87
2019-03-09T00:25:15.499Z,37.85
2019-03-09T00:27:48.727Z,37.86
2019-03-09T00:30:21.974Z,37.89
2019-03-09T00:32:55.207Z,37.88
2019-03-09T00:35:28.466Z,37.84
2019-03-09T00:38:01.703Z,37.81
2019-03-09T00:40:34.952Z,37.75
2019-03-09T00:43:08.179Z,37.70
2019-03-09T00:45:41.416Z,37.75
2019-03-09T00:48:14.638Z,37.71
2019-03-09T00:50:47.871Z,37.71
2019-03-09T00:53:21.099Z,37.71
2019-03-09T00:55:54.345Z,37.73
2019-03-09T00:58:27.574Z,37.67
2019-03-09T01:01:00.823Z,37.72
2019-03-09T01:03:34.051Z,37.74
2019-03-09T01:06:07.310Z,37.78
2019-03-09T01:08:40.547Z,37.79
2019-03-09T01:11:14.033Z,37.82
2019-03-09T01:13:47.271Z,37.85
2019-03-09T01:16:20.503Z,37.87
2019-03-09T01:18:53.734Z,37.90
2019-03-09T01:21:26.982Z,37.91
2019-03-09T01:24:00.213Z,37.94
2019-03-09T01:26:33.479Z,37.98
2019-03-09T01:29:06.708Z,37.96
2019-03-09T01:31:39.948Z,38.02
2019-03-09T01:34:13.175Z,38.05
2019-03-09T01:36:46.441Z,38.08
2019-03-09T01:39:19.669Z,38.08
2019-03-09T01:41:52.917Z,38.11
2019-03-09T01:44:26.146Z,38.11
2019-03-09T01:46:59.405Z,38.20
2019-03-09T01:49:32.627Z,38.18
2019-03-09T01:52:05.870Z,38.22
2019-03-09T01:54:39.099Z,38.23
2019-03-09T01:57:12.343Z,38.27
2019-03-09T01:59:45.578Z,38.29
2019-03-09T02:02:18.826Z,38.30
2019-03-09T02:04:52.049Z,38.33
2019-03-09T02:07:25.304Z,38.37
2019-03-09T02:09:58.532Z,38.45
2019-03-09T02:12:32.762Z,38.45
2019-03-09T02:15:13.201Z,38.46
2019-03-09T02:17:46.448Z,38.52
2019-03-09T02:20:19.676Z,38.51
2019-03-09T02:22:52.924Z,38.56
2019-03-09T02:25:26.147Z,38.60
2019-03-09T02:27:59.407Z,38.57
2019-03-09T02:30:32.643Z,38.66
2019-03-09T02:33:05.887Z,38.69
2019-03-09T02:35:39.137Z,38.71
2019-03-09T02:38:12.372Z,38.72
2019-03-09T02:40:45.598Z,38.71
2019-03-09T02:43:18.925Z,38.81
2019-03-09T02:45:52.154Z,38.82
2019-03-09T02:48:25.401Z,38.88
2019-03-09T02:50:58.642Z,38.90
2019-03-09T02:53:31.875Z,38.95
2019-03-09T02:56:05.098Z,38.97
2019-03-09T02:58:38.340Z,39.00
2019-03-09T03:01:11.574Z,39.02
2019-03-09T03:03:44.814Z,39.13
2019-03-09T03:06:19.015Z,39.16
2019-03-09T03:08:52.274Z,39.16
2019-03-09T03:11:25.495Z,39.18
2019-03-09T03:13:58.747Z,39.20
2019-03-09T03:16:32.046Z,39.23
2019-03-09T03:19:05.318Z,39.23
2019-03-09T03:21:38.528Z,39.28
2019-03-09T03:24:11.777Z,39.29
2019-03-09T03:26:45.006Z,39.33
2019-03-09T03:29:18.252Z,39.39
2019-03-09T03:31:51.485Z,39.37
2019-03-09T03:34:24.752Z,39.38
2019-03-09T03:36:57.956Z,39.40
2019-03-09T03:39:31.211Z,39.41
2019-03-09T03:42:04.445Z,39.46
2019-03-09T03:44:37.692Z,39.58
2019-03-09T03:47:11.156Z,39.53
2019-03-09T03:49:44.408Z,39.57
2019-03-09T03:52:17.638Z,39.62
2019-03-09T03:54:50.881Z,39.64
2019-03-09T03:57:24.105Z,39.67
2019-03-09T03:59:57.351Z,39.67
2019-03-09T04:02:30.583Z,39.71
2019-03-09T04:05:05.237Z,39.65
2019-03-09T04:07:38.936Z,39.69
2019-03-09T04:10:13.110Z,39.69
2019-03-09T04:12:46.343Z,39.71
2019-03-09T04:15:19.583Z,39.78
2019-03-09T04:17:52.822Z,39.74
2019-03-09T04:20:26.065Z,39.81
2019-03-09T04:22:59.292Z,39.83
2019-03-09T04:25:33.516Z,39.85
2019-03-09T04:28:06.765Z,39.80
2019-03-09T04:30:39.987Z,39.87
2019-03-09T04:33:13.222Z,39.87
2019-03-09T04:35:46.469Z,39.91
2019-03-09T04:38:19.693Z,39.88
2019-03-09T04:40:52.928Z,39.93
2019-03-09T04:43:26.152Z,39.92
2019-03-09T04:45:59.397Z,39.98
2019-03-09T04:48:32.623Z,40.02
2019-03-09T04:51:05.895Z,40.02
2019-03-09T04:53:39.128Z,40.02
2019-03-09T04:56:12.382Z,40.08
2019-03-09T04:58:45.612Z,40.10
2019-03-09T05:01:18.910Z,40.08
2019-03-09T05:03:58.147Z,40.09
2019-03-09T05:06:31.404Z,40.08
2019-03-09T05:09:16.482Z,40.02
2019-03-09T05:11:49.720Z,40.06
2019-03-09T05:14:22.947Z,40.08
2019-03-09T05:16:56.190Z,40.07
2019-03-09T05:19:29.416Z,40.09
2019-03-09T05:22:02.897Z,40.12
2019-03-09T05:24:36.123Z,40.03
2019-03-09T05:27:09.369Z,40.05
2019-03-09T05:29:42.634Z,40.09
2019-03-09T05:32:15.850Z,40.10
2019-03-09T05:34:49.082Z,40.12
2019-03-09T05:37:22.329Z,40.10
2019-03-09T05:39:55.567Z,40.09
2019-03-09T05:42:28.813Z,40.18
2019-03-09T05:45:02.325Z,40.19
2019-03-09T05:47:35.576Z,40.17
2019-03-09T05:50:08.813Z,40.14
2019-03-09T05:52:42.061Z,40.12
2019-03-09T05:55:15.293Z,40.06
2019-03-09T05:57:48.770Z,40.02
2019-03-09T06:00:22.006Z,39.98
2019-03-09T06:02:55.247Z,39.96
2019-03-09T06:05:32.995Z,39.90
2019-03-09T06:08:06.591Z,39.92
2019-03-09T06:10:39.814Z,39.92
2019-03-09T06:13:14.035Z,39.95
2019-03-09T06:15:47.269Z,39.93
2019-03-09T06:18:20.513Z,39.98
2019-03-09T06:20:53.745Z,40.01
2019-03-09T06:23:26.995Z,39.94
2019-03-09T06:26:00.223Z,40.05
2019-03-09T06:28:33.464Z,40.07
2019-03-09T06:31:06.693Z,40.04
2019-03-09T06:33:40.905Z,40.18
2019-03-09T06:36:20.112Z,40.18
2019-03-09T06:39:02.054Z,40.37
2019-03-09T06:41:42.699Z,41.35
2019-03-09T06:44:15.946Z,41.63
2019-03-09T06:46:50.639Z,42.21
2019-03-09T06:49:23.888Z,42.03
2019-03-09T06:51:57.111Z,41.91
2019-03-09T06:54:30.364Z,41.77
2019-03-09T06:57:13.291Z,42.11
2019-03-09T06:59:38.533Z,42.42
2019-03-09T07:02:11.764Z,42.11
2019-03-09T07:04:45.000Z,43.14
2019-03-09T07:07:19.202Z,42.59
2019-03-09T07:09:52.467Z,42.48
2019-03-09T07:12:25.691Z,42.53
2019-03-09T07:15:02.191Z,42.57
2019-03-09T07:17:35.421Z,42.58
2019-03-09T07:20:12.852Z,42.56
2019-03-09T07:22:44.086Z,42.51
2019-03-09T07:25:17.339Z,42.64
2019-03-09T07:27:58.970Z,42.53
2019-03-09T07:30:32.206Z,42.67
2019-03-09T07:33:05.451Z,42.71
2019-03-09T07:35:38.702Z,42.70
2019-03-09T07:38:11.931Z,42.64
2019-03-09T07:40:45.184Z,42.56
2019-03-09T07:43:18.411Z,42.46
2019-03-09T07:45:51.632Z,42.45
2019-03-09T07:48:24.888Z,42.42
2019-03-09T07:50:58.130Z,42.37
2019-03-09T07:53:32.333Z,42.35
2019-03-09T07:56:08.640Z,42.23
2019-03-09T07:58:41.870Z,42.29
2019-03-09T08:01:15.102Z,42.08
2019-03-09T08:03:48.336Z,42.05
2019-03-09T08:06:22.566Z,42.17
2019-03-09T08:08:55.799Z,42.24
2019-03-09T08:11:29.049Z,42.01
2019-03-09T08:14:02.283Z,41.87
2019-03-09T08:16:36.167Z,41.81
2019-03-09T08:19:09.448Z,41.78
2019-03-09T08:21:43.679Z,41.71
2019-03-09T08:24:17.880Z,43.48
2019-03-09T08:26:51.126Z,45.70
2019-03-09T08:29:24.347Z,44.08
2019-03-09T08:31:57.589Z,42.96
2019-03-09T08:34:30.818Z,42.50
2019-03-09T08:37:04.057Z,42.30
2019-03-09T08:39:37.310Z,42.26
2019-03-09T08:42:12.171Z,42.22
2019-03-09T08:44:45.407Z,42.14
2019-03-09T08:47:18.655Z,41.74
2019-03-09T08:49:51.884Z,41.33
2019-03-09T08:52:25.127Z,41.13
2019-03-09T08:54:58.357Z,41.05
2019-03-09T08:57:31.611Z,40.99
2019-03-09T09:00:13.961Z,41.10
2019-03-09T09:02:47.183Z,41.05
2019-03-09T09:05:20.411Z,41.03
2019-03-09T09:07:53.731Z,41.09
2019-03-09T09:10:26.953Z,40.99
2019-03-09T09:13:00.199Z,40.95
2019-03-09T09:15:33.432Z,40.89
2019-03-09T09:18:06.677Z,40.79
2019-03-09T09:20:39.916Z,40.78
2019-03-09T09:23:13.182Z,40.80
2019-03-09T09:25:46.417Z,40.80
2019-03-09T09:28:19.667Z,40.74
2019-03-09T09:30:52.904Z,40.93
2019-03-09T09:33:26.139Z,41.52
2019-03-09T09:36:00.344Z,41.23
2019-03-09T09:38:33.594Z,41.26
2019-03-09T09:41:06.831Z,41.14
2019-03-09T09:43:40.087Z,40.99
2019-03-09T09:46:13.316Z,41.02
2019-03-09T09:48:46.558Z,40.95
2019-03-09T09:51:19.787Z,40.86
2019-03-09T09:53:53.043Z,40.88
2019-03-09T09:56:26.349Z,41.14
2019-03-09T09:58:59.594Z,41.06
2019-03-09T10:01:32.830Z,40.96
2019-03-09T10:04:06.062Z,40.86
2019-03-09T10:06:39.287Z,40.78
2019-03-09T10:09:12.535Z,40.80
2019-03-09T10:11:48.315Z,40.73
2019-03-09T10:14:20.720Z,40.70
2019-03-09T10:16:53.965Z,40.69
2019-03-09T10:19:27.214Z,40.77
2019-03-09T10:22:00.445Z,40.74
2019-03-09T10:24:33.687Z,40.73
2019-03-09T10:27:06.925Z,40.65
2019-03-09T10:29:40.156Z,40.61
2019-03-09T10:32:13.391Z,40.73
2019-03-09T10:34:46.644Z,40.70
2019-03-09T10:37:19.879Z,40.90
2019-03-09T10:39:53.257Z,40.76
2019-03-09T10:42:26.487Z,40.79
2019-03-09T10:45:00.424Z,40.70
2019-03-09T10:47:33.626Z,40.72
2019-03-09T10:50:09.420Z,40.72
2019-03-09T10:52:42.648Z,40.95
2019-03-09T10:55:27.117Z,40.89
2019-03-09T10:58:00.348Z,40.83
2019-03-09T11:00:38.183Z,40.95
2019-03-09T11:03:11.425Z,40.85
2019-03-09T11:05:44.498Z,41.08
2019-03-09T11:08:17.720Z,42.08
2019-03-09T11:10:50.965Z,41.63
2019-03-09T11:13:24.212Z,41.53
2019-03-09T11:15:57.466Z,41.32
2019-03-09T11:18:30.702Z,40.91
2019-03-09T11:21:03.944Z,40.75
2019-03-09T11:23:37.299Z,40.63
2019-03-09T11:26:10.610Z,40.54
2019-03-09T11:28:43.845Z,40.22
2019-03-09T11:31:17.089Z,40.18
2019-03-09T11:33:50.319Z,40.11
2019-03-09T11:36:23.568Z,39.87
2019-03-09T11:38:56.797Z,39.71
2019-03-09T11:41:30.045Z,39.74
2019-03-09T11:44:03.282Z,39.61
2019-03-09T11:46:37.366Z,39.52
2019-03-09T11:49:10.639Z,39.51
2019-03-09T11:51:43.896Z,39.66
2019-03-09T11:54:17.124Z,39.69
2019-03-09T11:56:50.387Z,39.63
2019-03-09T11:59:23.626Z,39.75
2019-03-09T12:01:56.870Z,39.84
2019-03-09T12:04:30.111Z,39.93
2019-03-09T12:07:03.354Z,40.06
2019-03-09T12:09:36.568Z,40.08
2019-03-09T12:12:09.819Z,40.15
2019-03-09T12:14:43.040Z,40.15
2019-03-09T12:17:16.349Z,40.28
2019-03-09T12:19:49.586Z,40.26
2019-03-09T12:22:22.840Z,40.55
2019-03-09T12:24:56.708Z,40.57
2019-03-09T12:27:29.961Z,40.50
2019-03-09T12:30:04.137Z,40.60
2019-03-09T12:32:37.467Z,40.54
2019-03-09T12:35:10.699Z,40.41
2019-03-09T12:37:43.946Z,40.37
2019-03-09T12:40:18.124Z,40.61
2019-03-09T12:42:51.373Z,40.62
2019-03-09T12:45:24.611Z,40.78
2019-03-09T12:47:57.854Z,41.06
2019-03-09T12:50:31.075Z,41.12
2019-03-09T12:53:04.552Z,41.17
2019-03-09T12:55:37.781Z,41.38
2019-03-09T12:58:11.995Z,41.48
2019-03-09T13:00:45.232Z,41.63
2019-03-09T13:03:18.484Z,41.63
2019-03-09T13:05:51.709Z,41.65
2019-03-09T13:08:24.979Z,41.57
2019-03-09T13:10:58.194Z,41.63
2019-03-09T13:13:31.668Z,41.85
2019-03-09T13:16:04.905Z,41.96
2019-03-09T13:18:38.149Z,42.15
2019-03-09T13:21:11.381Z,42.22
2019-03-09T13:23:44.623Z,42.48
2019-03-09T13:26:17.853Z,42.46
2019-03-09T13:28:51.088Z,42.51
2019-03-09T13:31:24.323Z,42.24
2019-03-09T13:33:57.562Z,42.11
2019-03-09T13:36:30.790Z,42.11
2019-03-09T13:39:05.072Z,41.96
2019-03-09T13:41:38.579Z,41.75
2019-03-09T13:44:12.046Z,41.74
2019-03-09T13:46:45.277Z,41.69
2019-03-09T13:49:18.516Z,41.64
2019-03-09T13:51:51.749Z,41.61
2019-03-09T13:54:25.004Z,41.57
2019-03-09T13:56:58.240Z,41.58
2019-03-09T13:59:31.576Z,41.39
2019-03-09T14:02:04.822Z,41.18
2019-03-09T14:04:38.056Z,40.43
2019-03-09T14:07:11.287Z,40.71
2019-03-09T14:09:44.541Z,40.82
2019-03-09T14:12:17.775Z,40.87
2019-03-09T14:14:51.021Z,40.68
2019-03-09T14:17:25.230Z,40.62
2019-03-09T14:19:58.475Z,41.41
2019-03-09T14:22:31.714Z,41.87
2019-03-09T14:25:06.817Z,41.57
2019-03-09T14:27:40.059Z,41.44
2019-03-09T14:30:14.951Z,41.62
2019-03-09T14:32:48.186Z,41.64
2019-03-09T14:35:21.434Z,41.58
2019-03-09T14:37:54.666Z,41.45
2019-03-09T14:40:27.908Z,41.43
2019-03-09T14:43:01.135Z,41.29
2019-03-09T14:45:34.380Z,41.40
2019-03-09T14:48:08.585Z,41.42
2019-03-09T14:50:41.828Z,41.39
2019-03-09T14:53:15.055Z,41.47
2019-03-09T14:55:48.297Z,41.37
2019-03-09T14:58:21.523Z,41.19
2019-03-09T15:00:54.767Z,41.08
2019-03-09T15:03:27.995Z,41.13
2019-03-09T15:06:01.235Z,40.95
2019-03-09T15:08:34.464Z,40.88
2019-03-09T15:11:07.715Z,40.77
2019-03-09T15:13:40.945Z,40.76
2019-03-09T15:16:14.186Z,40.72
2019-03-09T15:18:47.421Z,40.65
2019-03-09T15:21:20.678Z,40.66
2019-03-09T15:23:53.903Z,40.60
2019-03-09T15:26:27.150Z,40.46
2019-03-09T15:29:00.389Z,40.15
2019-03-09T15:31:33.633Z,40.02
2019-03-09T15:34:06.895Z,40.29
2019-03-09T15:36:40.143Z,40.16
2019-03-09T15:39:13.367Z,39.99
2019-03-09T15:41:47.217Z,39.88
2019-03-09T15:44:20.448Z,39.76
2019-03-09T15:46:53.695Z,39.43
2019-03-09T15:49:26.933Z,39.17
2019-03-09T15:52:00.503Z,38.41
2019-03-09T15:54:33.730Z,38.85
2019-03-09T15:57:06.967Z,38.57
2019-03-09T15:59:40.208Z,38.45
2019-03-09T16:02:13.449Z,38.53
2019-03-09T16:04:46.674Z,38.37
2019-03-09T16:07:19.918Z,38.34
2019-03-09T16:09:53.144Z,38.31
2019-03-09T16:12:26.396Z,38.20
2019-03-09T16:14:59.623Z,38.24
2019-03-09T16:17:32.893Z,38.10
2019-03-09T16:20:09.321Z,38.07
2019-03-09T16:22:42.567Z,38.08
2019-03-09T16:25:18.193Z,38.01
2019-03-09T16:27:51.461Z,37.97
2019-03-09T16:30:24.690Z,38.01
2019-03-09T16:32:57.930Z,37.83
2019-03-09T16:35:31.165Z,37.81
2019-03-09T16:38:04.407Z,37.79
2019-03-09T16:40:40.760Z,37.85
2019-03-09T16:43:12.801Z,37.77
2019-03-09T16:45:46.026Z,37.85
2019-03-09T16:48:20.242Z,38.06
2019-03-09T16:50:53.481Z,38.09
2019-03-09T16:53:26.729Z,37.97
2019-03-09T16:55:59.957Z,37.96
2019-03-09T16:58:33.201Z,37.94
2019-03-09T17:01:06.428Z,37.85
2019-03-09T17:03:39.695Z,37.54
2019-03-09T17:06:12.978Z,37.73
2019-03-09T17:08:46.238Z,37.58
2019-03-09T17:11:19.538Z,37.52
2019-03-09T17:13:52.855Z,37.53
2019-03-09T17:16:26.174Z,37.68
2019-03-09T17:18:59.409Z,37.54
2019-03-09T17:21:32.637Z,37.94
2019-03-09T17:24:05.887Z,38.00
2019-03-09T17:26:39.113Z,38.47
2019-03-09T17:29:12.422Z,39.14
2019-03-09T17:31:45.658Z,39.26
2019-03-09T17:34:18.912Z,39.46
2019-03-09T17:36:52.154Z,39.54
2019-03-09T17:39:25.412Z,40.46
2019-03-09T17:41:58.646Z,39.77
2019-03-09T17:44:31.907Z,39.67
2019-03-09T17:47:05.131Z,39.99
2019-03-09T17:49:38.384Z,39.41
2019-03-09T17:52:11.616Z,41.23
2019-03-09T17:54:44.861Z,42.17
2019-03-09T17:57:18.096Z,42.89
2019-03-09T17:59:51.358Z,42.87
2019-03-09T18:02:24.607Z,43.88
2019-03-09T18:04:58.838Z,43.36
2019-03-09T18:07:32.082Z,44.81
2019-03-09T18:10:11.475Z,44.05
2019-03-09T18:12:45.685Z,43.03
2019-03-09T18:15:18.923Z,42.18
2019-03-09T18:17:52.153Z,41.60
2019-03-09T18:20:25.410Z,41.11
2019-03-09T18:22:58.637Z,40.71
2019-03-09T18:25:31.886Z,40.42
2019-03-09T18:28:05.129Z,40.15
2019-03-09T18:30:38.360Z,40.01
2019-03-09T18:33:11.596Z,39.65
2019-03-09T18:35:44.863Z,39.56
2019-03-09T18:38:18.103Z,39.45
2019-03-09T18:40:51.340Z,39.26
2019-03-09T18:43:24.582Z,39.03
2019-03-09T18:45:57.830Z,38.81
2019-03-09T18:48:31.078Z,38.75
2019-03-09T18:51:04.323Z,38.69
2019-03-09T18:53:37.556Z,38.62
2019-03-09T18:56:10.803Z,38.59
2019-03-09T18:58:44.040Z,38.60
2019-03-09T19:01:17.300Z,38.53
2019-03-09T19:03:50.538Z,38.41
2019-03-09T19:06:23.779Z,38.32
2019-03-09T19:08:57.016Z,38.35
2019-03-09T19:11:30.270Z,38.41
2019-03-09T19:14:03.495Z,38.35
2019-03-09T19:16:36.742Z,38.38
2019-03-09T19:19:09.985Z,38.27
2019-03-09T19:21:43.247Z,38.18
2019-03-09T19:24:16.489Z,38.12
2019-03-09T19:26:49.733Z,38.19
2019-03-09T19:29:22.956Z,38.20
2019-03-09T19:31:56.218Z,38.61
2019-03-09T19:34:29.445Z,39.12
2019-03-09T19:37:02.699Z,38.77
2019-03-09T19:39:35.915Z,43.07
2019-03-09T19:42:09.186Z,43.01
2019-03-09T19:44:42.425Z,43.82
2019-03-09T19:47:15.669Z,42.48
2019-03-09T19:49:48.899Z,42.05
2019-03-09T19:52:22.164Z,42.04
2019-03-09T19:54:55.405Z,42.41
2019-03-09T19:57:28.649Z,42.24
2019-03-09T20:00:02.247Z,41.49
2019-03-09T20:02:35.763Z,41.76
2019-03-09T20:05:09.261Z,42.07
2019-03-09T20:07:42.503Z,40.96
2019-03-09T20:10:19.500Z,40.33
2019-03-09T20:12:52.753Z,40.13
2019-03-09T20:15:25.976Z,39.88
2019-03-09T20:17:59.233Z,39.89
2019-03-09T20:20:32.453Z,39.60
2019-03-09T20:23:05.695Z,39.67
2019-03-09T20:25:38.922Z,39.41
2019-03-09T20:28:12.182Z,39.20
2019-03-09T20:30:45.408Z,39.15
2019-03-09T20:33:18.642Z,39.01
2019-03-09T20:35:51.863Z,38.97
2019-03-09T20:38:25.118Z,38.92
2019-03-09T20:40:58.353Z,38.83
2019-03-09T20:43:31.590Z,38.85
2019-03-09T20:46:04.818Z,39.33
2019-03-09T20:48:38.051Z,39.15
2019-03-09T20:51:11.285Z,39.08
2019-03-09T20:53:44.557Z,38.94
2019-03-09T20:56:17.790Z,39.28
2019-03-09T20:58:51.036Z,39.39
2019-03-09T21:01:24.514Z,39.78
2019-03-09T21:03:57.761Z,40.09
2019-03-09T21:06:30.986Z,40.14
2019-03-09T21:09:05.067Z,40.46
2019-03-09T21:11:38.379Z,40.59
2019-03-09T21:14:11.616Z,40.66
2019-03-09T21:16:44.846Z,40.43
2019-03-09T21:19:18.087Z,40.17
2019-03-09T21:21:51.325Z,40.31
2019-03-09T21:24:24.586Z,40.48
2019-03-09T21:26:57.819Z,40.66
2019-03-09T21:29:31.062Z,40.91
2019-03-09T21:32:04.299Z,41.13
2019-03-09T21:34:37.538Z,41.17
2019-03-09T21:37:10.762Z,41.08
2019-03-09T21:39:44.024Z,41.25
2019-03-09T21:42:17.259Z,41.30
2019-03-09T21:44:50.506Z,41.33
2019-03-09T21:47:23.730Z,41.25
2019-03-09T21:49:56.981Z,41.14
2019-03-09T21:52:30.214Z,41.23
2019-03-09T21:55:04.903Z,40.97
2019-03-09T21:57:38.128Z,40.94
2019-03-09T22:00:13.221Z,41.16
2019-03-09T22:02:46.611Z,40.91
2019-03-09T22:05:19.843Z,40.57
2019-03-09T22:07:53.074Z,40.35
2019-03-09T22:10:26.312Z,40.03
2019-03-09T22:12:59.545Z,39.92
2019-03-09T22:15:32.793Z,39.67
2019-03-09T22:18:06.018Z,39.40
2019-03-09T22:20:39.266Z,39.28
2019-03-09T22:23:12.492Z,39.16
2019-03-09T22:25:45.809Z,38.98
2019-03-09T22:28:19.033Z,38.80
2019-03-09T22:30:52.275Z,38.89
2019-03-09T22:33:25.503Z,38.82
2019-03-09T22:35:58.753Z,38.74
2019-03-09T22:38:31.977Z,38.73
2019-03-09T22:41:05.241Z,38.59
2019-03-09T22:43:38.467Z,38.58
2019-03-09T22:46:11.705Z,38.52
2019-03-09T22:48:44.935Z,38.50
2019-03-09T22:51:18.186Z,38.51
2019-03-09T22:53:51.420Z,38.51
2019-03-09T22:56:24.652Z,38.31
2019-03-09T22:58:57.886Z,38.36
2019-03-09T23:01:31.126Z,38.49
2019-03-09T23:04:06.611Z,38.46
2019-03-09T23:06:39.317Z,38.31
2019-03-09T23:09:12.545Z,38.54
2019-03-09T23:11:45.792Z,38.57
2019-03-09T23:14:19.019Z,38.56
2019-03-09T23:16:52.267Z,38.71
2019-03-09T23:19:25.497Z,38.67
2019-03-09T23:21:58.733Z,38.74
2019-03-09T23:24:31.956Z,38.81
2019-03-09T23:27:05.188Z,38.90
2019-03-09T23:29:38.417Z,38.96
2019-03-09T23:32:11.661Z,39.00
2019-03-09T23:34:44.898Z,39.08
2019-03-09T23:37:18.152Z,39.18
2019-03-09T23:39:52.356Z,39.24
2019-03-09T23:42:25.605Z,39.27
2019-03-09T23:44:58.833Z,39.29
2019-03-09T23:47:32.075Z,39.35
2019-03-09T23:50:13.417Z,39.47
2019-03-09T23:52:46.678Z,39.54
2019-03-09T23:55:22.292Z,39.58
2019-03-09T23:57:55.791Z,39.58
